createdAt,value
2023-03-06T02:27:37.853Z,15.36
2023-03-06T02:28:37.837Z,15.40
2023-03-06T02:29:37.893Z,15.41
2023-03-06T02:30:37.954Z,15.41
2023-03-06T02:31:37.997Z,15.41
2023-03-06T02:55:38.389Z,15.40
2023-03-06T02:56:38.384Z,15.43
2023-03-06T02:57:38.386Z,15.45
2023-03-06T02:58:38.397Z,15.43
2023-03-06T02:59:38.376Z,15.48
2023-03-06T03:00:39.952Z,15.37
2023-03-06T03:01:38.437Z,15.46
2023-03-06T03:02:38.422Z,15.41
2023-03-06T03:03:38.401Z,15.46
2023-03-06T03:04:38.474Z,15.46
2023-03-06T03:05:38.433Z,15.40
2023-03-06T03:06:38.422Z,15.48
2023-03-06T03:07:38.416Z,15.45
2023-03-06T03:08:38.425Z,15.42
2023-03-06T03:09:38.439Z,15.46
2023-03-06T03:10:38.464Z,15.50
2023-03-06T03:11:38.458Z,15.51
2023-03-06T03:12:38.442Z,15.48
2023-03-06T03:13:38.633Z,15.46
2023-03-06T03:14:38.460Z,15.50
2023-03-06T03:15:38.528Z,15.45
2023-03-06T03:16:39.262Z,15.48
2023-03-06T03:17:38.491Z,15.46
2023-03-06T03:18:38.503Z,15.48
2023-03-06T03:19:38.505Z,15.42
2023-03-06T03:20:38.492Z,15.48
2023-03-06T03:21:38.472Z,15.44
2023-03-06T03:22:38.494Z,15.45
2023-03-06T03:23:38.511Z,15.50
2023-03-06T03:24:38.530Z,15.50
2023-03-06T03:25:38.509Z,15.50
2023-03-06T03:26:38.508Z,15.48
2023-03-06T03:27:38.543Z,15.46
2023-03-06T03:28:38.546Z,15.53
2023-03-06T03:29:38.569Z,15.48
2023-03-06T03:30:38.552Z,15.50
2023-03-06T03:31:38.599Z,15.50
2023-03-06T03:32:38.574Z,15.51
2023-03-06T03:33:38.636Z,15.50
2023-03-06T03:34:38.581Z,15.51
2023-03-06T03:35:38.609Z,15.50
2023-03-06T03:36:38.595Z,15.53
2023-03-06T03:37:38.611Z,15.50
2023-03-06T03:38:38.643Z,15.55
2023-03-06T03:39:38.667Z,15.53
2023-03-06T03:40:38.734Z,15.55
2023-03-06T03:41:38.785Z,15.56
2023-03-06T03:42:38.869Z,15.50
2023-03-06T03:43:38.923Z,15.52
2023-03-06T03:44:38.968Z,15.49
2023-03-06T03:45:39.048Z,15.53
2023-03-06T03:46:39.100Z,15.50
2023-03-06T03:47:39.145Z,15.51
2023-03-06T03:48:39.153Z,15.50
2023-03-06T03:49:39.187Z,15.55
2023-03-06T03:50:39.172Z,15.52
2023-03-06T03:51:39.204Z,15.53
2023-03-06T03:52:39.148Z,15.51
2023-03-06T03:53:39.172Z,15.50
2023-03-06T03:54:39.165Z,15.52
2023-03-06T03:55:39.181Z,15.55
2023-03-06T03:56:39.197Z,15.56
2023-03-06T03:57:39.160Z,15.56
2023-03-06T03:58:39.180Z,15.52
2023-03-06T03:59:39.194Z,15.52
2023-03-06T04:00:39.177Z,15.55
2023-03-06T04:01:39.857Z,15.47
2023-03-06T04:02:39.261Z,15.50
2023-03-06T04:03:39.319Z,15.53
2023-03-06T04:04:39.402Z,15.53
2023-03-06T04:05:39.443Z,15.50
2023-03-06T04:06:39.473Z,15.52
2023-03-06T04:07:39.533Z,15.52
2023-03-06T04:08:39.614Z,15.49
2023-03-06T04:09:39.597Z,15.55
2023-03-06T04:10:39.659Z,15.58
2023-03-06T04:11:39.664Z,15.58
2023-03-06T04:12:39.705Z,15.58
2023-03-06T04:13:39.718Z,15.62
2023-03-06T04:14:39.732Z,15.59
2023-03-06T04:15:39.770Z,15.56
2023-03-06T04:16:39.811Z,15.67
2023-03-06T04:17:39.852Z,15.62
2023-03-06T04:18:39.878Z,15.68
2023-03-06T04:19:39.938Z,15.64
2023-03-06T04:20:39.947Z,15.64
2023-03-06T04:21:39.966Z,15.64
2023-03-06T04:22:40.022Z,15.68
2023-03-06T04:23:40.023Z,15.65
2023-03-06T04:24:40.066Z,15.68
2023-03-06T04:25:40.115Z,15.70
2023-03-06T04:26:40.142Z,15.70
2023-03-06T04:27:40.202Z,15.67
2023-03-06T04:28:40.198Z,15.63
2023-03-06T04:29:40.239Z,15.71
2023-03-06T04:30:40.277Z,15.70
2023-03-06T04:31:40.328Z,15.69
2023-03-06T04:32:40.418Z,15.67
2023-03-06T04:33:40.372Z,15.67
2023-03-06T04:34:40.380Z,15.68
2023-03-06T04:35:40.544Z,15.68
2023-03-06T04:36:40.477Z,15.68
2023-03-06T04:37:40.539Z,15.68
2023-03-06T04:38:40.631Z,15.65
2023-03-06T04:39:40.619Z,15.77
2023-03-06T04:40:40.617Z,15.74
2023-03-06T04:41:40.662Z,15.74
2023-03-06T04:42:40.695Z,15.74
2023-03-06T04:43:40.797Z,15.79
2023-03-06T04:44:40.801Z,15.74
2023-03-06T04:45:40.855Z,15.69
2023-03-06T04:46:40.867Z,15.69
2023-03-06T04:47:40.869Z,15.68
2023-03-06T04:48:40.902Z,15.68
2023-03-06T04:49:40.886Z,15.68
2023-03-06T04:50:40.874Z,15.62
2023-03-06T04:51:40.953Z,15.61
2023-03-06T04:52:40.960Z,15.56
2023-03-06T04:53:40.965Z,15.58
2023-03-06T04:54:40.977Z,15.52
2023-03-06T04:55:40.966Z,15.55
2023-03-06T04:56:40.998Z,15.52
2023-03-06T04:57:40.971Z,15.44
2023-03-06T04:58:40.980Z,15.47
2023-03-06T04:59:40.997Z,15.43
2023-03-06T05:00:41.020Z,15.38
2023-03-06T05:01:41.019Z,15.40
2023-03-06T05:02:40.984Z,15.46
2023-03-06T05:03:40.993Z,15.37
2023-03-06T05:04:40.973Z,15.38
2023-03-06T05:05:41.003Z,15.35
2023-03-06T05:06:41.000Z,15.32
2023-03-06T05:07:40.974Z,15.35
2023-03-06T05:08:41.008Z,15.37
2023-03-06T05:09:40.999Z,15.37
2023-03-06T05:10:41.004Z,15.35
2023-03-06T05:11:41.003Z,15.31
2023-03-06T05:12:40.993Z,15.34
2023-03-06T05:13:41.036Z,15.40
2023-03-06T05:14:41.029Z,15.33
2023-03-06T05:15:41.008Z,15.29
2023-03-06T05:16:41.083Z,15.32
2023-03-06T05:17:41.024Z,15.30
2023-03-06T05:18:41.060Z,15.29
2023-03-06T05:19:41.070Z,15.34
2023-03-06T05:20:41.076Z,15.37
2023-03-06T05:21:41.024Z,15.35
2023-03-06T05:22:41.061Z,15.29
2023-03-06T05:23:41.056Z,15.34
2023-03-06T05:24:41.073Z,15.30
2023-03-06T05:25:41.089Z,15.35
2023-03-06T05:26:41.068Z,15.34
2023-03-06T05:27:41.069Z,15.35
2023-03-06T05:28:41.082Z,15.35
2023-03-06T05:29:41.088Z,15.39
2023-03-06T05:30:41.098Z,15.44
2023-03-06T05:31:41.195Z,15.39
2023-03-06T05:32:41.251Z,15.46
2023-03-06T05:33:41.273Z,15.42
2023-03-06T05:34:41.342Z,15.39
2023-03-06T05:35:41.449Z,15.39
2023-03-06T05:36:41.453Z,15.42
2023-03-06T05:37:41.492Z,15.46
2023-03-06T05:38:41.505Z,15.46
2023-03-06T05:39:41.508Z,15.39
2023-03-06T05:40:41.529Z,15.45
2023-03-06T05:41:41.507Z,15.42
2023-03-06T05:42:41.514Z,15.46
2023-03-06T05:43:41.515Z,15.44
2023-03-06T05:44:41.556Z,15.39
2023-03-06T05:45:41.594Z,15.42
2023-03-06T05:46:41.527Z,15.39
2023-03-06T05:47:41.526Z,15.36
2023-03-06T05:48:41.528Z,15.41
2023-03-06T05:49:41.545Z,15.36
2023-03-06T05:50:41.515Z,15.36
2023-03-06T05:51:41.508Z,15.36
2023-03-06T05:52:41.536Z,15.36
2023-03-06T05:53:41.517Z,15.36
2023-03-06T05:54:41.556Z,15.39
2023-03-06T05:55:41.555Z,15.38
2023-03-06T05:56:42.909Z,15.35
2023-03-06T05:57:41.585Z,15.35
2023-03-06T05:58:41.657Z,15.32
2023-03-06T05:59:42.690Z,15.32
2023-03-06T06:00:41.786Z,15.30
2023-03-06T06:01:48.816Z,15.32
2023-03-06T06:02:41.870Z,15.32
2023-03-06T06:03:41.823Z,15.30
2023-03-06T06:04:41.812Z,15.35
2023-03-06T06:05:41.770Z,15.36
2023-03-06T06:06:41.784Z,15.39
2023-03-06T06:07:41.790Z,15.33
2023-03-06T06:08:41.829Z,15.35
2023-03-06T06:09:41.854Z,15.39
2023-03-06T06:10:41.755Z,15.36
2023-03-06T06:11:41.747Z,15.38
2023-03-06T06:12:41.804Z,15.41
2023-03-06T06:13:41.780Z,15.39
2023-03-06T06:14:41.748Z,15.36
2023-03-06T06:15:41.791Z,15.36
2023-03-06T06:16:41.711Z,15.33
2023-03-06T06:17:41.715Z,15.36
2023-03-06T06:18:41.700Z,15.33
2023-03-06T06:19:41.688Z,15.39
2023-03-06T06:20:41.726Z,15.42
2023-03-06T06:21:41.680Z,15.36
2023-03-06T06:22:41.695Z,15.39
2023-03-06T06:23:41.661Z,15.42
2023-03-06T06:24:41.649Z,15.36
2023-03-06T06:25:41.624Z,15.36
2023-03-06T06:26:41.665Z,15.46
2023-03-06T06:27:41.652Z,15.39
2023-03-06T06:28:41.617Z,15.35
2023-03-06T06:29:41.623Z,15.38
2023-03-06T06:30:42.037Z,15.39
2023-03-06T06:31:41.640Z,15.35
2023-03-06T06:32:41.696Z,15.38
2023-03-06T06:33:41.655Z,15.43
2023-03-06T06:35:41.614Z,15.91
2023-03-06T06:36:41.812Z,16.17
2023-03-06T06:37:41.584Z,16.60
2023-03-06T06:38:41.548Z,16.54
2023-03-06T06:39:41.571Z,16.63
2023-03-06T06:40:41.560Z,16.69
2023-03-06T06:42:02.257Z,17.17
2023-03-06T06:42:42.543Z,17.44
2023-03-06T06:43:41.536Z,18.54
2023-03-06T06:44:41.512Z,19.57
2023-03-06T06:45:41.527Z,18.75
2023-03-06T06:47:42.532Z,19.83
2023-03-06T06:48:41.679Z,19.69
2023-03-06T06:49:41.533Z,20.03
2023-03-06T06:50:41.576Z,19.97
2023-03-06T06:51:41.511Z,20.59
2023-03-06T06:52:41.474Z,20.39
2023-03-06T06:53:41.496Z,20.54
2023-03-06T06:54:41.477Z,20.41
2023-03-06T06:55:41.477Z,20.93
2023-03-06T06:56:41.451Z,21.01
2023-03-06T06:57:41.436Z,20.45
2023-03-06T06:58:41.426Z,20.33
2023-03-06T06:59:41.489Z,20.61
2023-03-06T07:00:41.417Z,20.72
2023-03-06T07:01:41.446Z,20.78
2023-03-06T07:02:41.423Z,21.00
2023-03-06T07:03:41.443Z,20.94
2023-03-06T07:04:56.193Z,20.94
2023-03-06T07:05:42.400Z,20.81
2023-03-06T07:06:41.401Z,20.81
2023-03-06T07:07:41.375Z,21.13
2023-03-06T07:08:41.366Z,21.63
2023-03-06T07:09:41.476Z,21.51
2023-03-06T07:10:41.382Z,21.99
2023-03-06T07:11:41.855Z,21.48
2023-03-06T07:12:41.361Z,21.79
2023-03-06T07:13:41.322Z,21.42
2023-03-06T07:14:41.374Z,21.44
2023-03-06T07:15:41.374Z,21.57
2023-03-06T07:16:41.324Z,21.52
2023-03-06T07:17:41.322Z,21.68
2023-03-06T07:18:41.292Z,21.75
2023-03-06T07:19:41.359Z,21.91
2023-03-06T07:20:41.304Z,22.08
2023-03-06T07:21:41.390Z,22.16
2023-03-06T07:22:50.845Z,22.23
2023-03-06T07:23:42.347Z,22.62
2023-03-06T07:24:41.365Z,22.59
2023-03-06T07:25:41.321Z,22.78
2023-03-06T07:26:41.336Z,23.26
2023-03-06T07:27:41.361Z,23.03
2023-03-06T07:28:51.956Z,23.08
2023-03-06T07:29:42.292Z,24.33
2023-03-06T07:30:41.301Z,23.78
2023-03-06T07:31:41.362Z,23.41
2023-03-06T07:32:41.328Z,23.74
2023-03-06T07:33:41.284Z,22.99
2023-03-06T07:34:41.286Z,22.95
2023-03-06T07:35:41.345Z,23.06
2023-03-06T07:36:41.355Z,22.80
2023-03-06T07:37:41.309Z,22.59
2023-03-06T07:38:41.299Z,22.42
2023-03-06T07:39:41.280Z,22.27
2023-03-06T07:40:41.321Z,22.16
2023-03-06T07:41:41.868Z,22.01
2023-03-06T07:42:41.254Z,22.01
2023-03-06T07:43:41.313Z,22.10
2023-03-06T07:44:41.233Z,22.04
2023-03-06T07:45:41.211Z,22.24
2023-03-06T07:46:41.534Z,22.32
2023-03-06T07:47:41.309Z,22.38
2023-03-06T07:48:41.374Z,22.64
2023-03-06T07:49:41.485Z,23.14
2023-03-06T07:50:41.463Z,23.02
2023-03-06T07:53:41.579Z,22.74
2023-03-06T07:54:41.631Z,23.81
2023-03-06T07:55:42.044Z,22.93
2023-03-06T07:56:41.945Z,22.35
2023-03-06T07:58:41.718Z,22.46
2023-03-06T07:59:41.808Z,21.99
2023-03-06T08:00:41.839Z,22.54
2023-03-06T08:01:41.908Z,23.21
2023-03-06T08:02:41.941Z,22.07
2023-03-06T08:03:41.832Z,21.08
2023-03-06T08:04:41.862Z,21.20
2023-03-06T08:05:41.860Z,20.86
2023-03-06T08:06:41.875Z,20.51
2023-03-06T08:36:42.613Z,15.94
2023-03-06T09:41:44.947Z,19.54
2023-03-06T11:18:49.017Z,23.61
2023-03-06T11:38:48.788Z,24.66
2023-03-06T11:39:48.962Z,24.02
2023-03-06T11:40:48.799Z,23.57
2023-03-06T11:41:48.797Z,23.41
2023-03-06T11:42:48.825Z,23.32
2023-03-06T11:43:48.838Z,23.14
2023-03-06T11:44:48.970Z,22.96
2023-03-06T11:45:48.989Z,22.91
2023-03-06T11:46:48.998Z,22.80
2023-03-06T11:47:49.040Z,22.77
2023-03-06T11:48:49.055Z,22.67
2023-03-06T11:49:49.455Z,22.55
2023-03-06T11:50:49.120Z,22.50
2023-03-06T11:51:49.170Z,22.56
2023-03-06T11:52:49.248Z,22.45
2023-03-06T11:53:49.256Z,22.40
2023-03-06T11:54:49.483Z,22.29
2023-03-06T11:55:49.369Z,22.28
2023-03-06T11:56:49.372Z,22.26
2023-03-06T11:57:49.421Z,22.16
2023-03-06T11:58:49.486Z,22.08
2023-03-06T11:59:49.549Z,22.10
2023-03-06T12:00:49.602Z,21.90
2023-03-06T12:01:49.670Z,21.82
2023-03-06T12:02:49.717Z,21.81
2023-03-06T12:03:49.781Z,21.77
2023-03-06T12:04:49.998Z,21.69
2023-03-06T12:05:49.996Z,21.63
2023-03-06T12:06:49.973Z,21.57
2023-03-06T12:07:50.078Z,21.52
2023-03-06T12:08:50.075Z,21.47
2023-03-06T12:09:50.111Z,21.45
2023-03-06T12:10:51.866Z,21.35
2023-03-06T12:11:50.317Z,21.28
2023-03-06T12:12:50.650Z,21.20
2023-03-06T12:14:50.477Z,21.12
2023-03-06T12:15:50.533Z,21.15
2023-03-06T12:16:50.529Z,21.06
2023-03-06T12:17:50.561Z,21.01
2023-03-06T12:18:50.557Z,20.92
2023-03-06T12:19:50.991Z,20.93
2023-03-06T12:20:50.971Z,20.87
2023-03-06T12:21:50.671Z,20.82
2023-03-06T12:22:57.616Z,20.76
2023-03-06T12:23:51.769Z,20.74
2023-03-06T12:24:50.732Z,20.70
2023-03-06T12:25:51.011Z,20.68
2023-03-06T12:26:50.715Z,20.55
2023-03-06T12:27:50.709Z,20.54
2023-03-06T12:28:50.720Z,20.55
2023-03-06T12:29:50.792Z,20.51
2023-03-06T12:30:51.053Z,20.34
2023-03-06T12:31:50.764Z,20.97
2023-03-06T12:32:50.729Z,20.50
2023-03-06T12:33:50.696Z,20.33
2023-03-06T12:34:50.674Z,20.56
2023-03-06T12:35:51.020Z,20.73
2023-03-06T12:36:50.672Z,20.31
2023-03-06T12:37:50.804Z,20.34
2023-03-06T12:38:50.637Z,19.92
2023-03-06T12:39:50.634Z,19.45
2023-03-06T12:40:50.642Z,19.37
2023-03-06T12:41:50.656Z,19.06
2023-03-06T12:42:50.662Z,18.85
2023-03-06T12:43:50.682Z,18.78
2023-03-06T12:44:50.743Z,18.86
2023-03-06T12:45:50.791Z,18.81
2023-03-06T12:46:50.749Z,18.70
2023-03-06T12:47:50.790Z,18.69
2023-03-06T12:48:50.814Z,18.48
2023-03-06T12:49:50.839Z,18.42
2023-03-06T12:50:50.879Z,18.47
2023-03-06T12:51:50.899Z,18.51
2023-03-06T12:52:50.907Z,18.42
2023-03-06T12:53:50.919Z,18.31
2023-03-06T12:54:50.953Z,18.33
2023-03-06T12:55:50.957Z,18.34
2023-03-06T12:56:50.970Z,18.31
2023-03-06T12:57:50.984Z,18.28
2023-03-06T12:58:51.052Z,18.28
2023-03-06T12:59:51.034Z,18.22
2023-03-06T13:00:55.281Z,18.29
2023-03-06T13:01:52.134Z,18.23
2023-03-06T13:02:51.094Z,18.19
2023-03-06T13:03:51.013Z,18.19
2023-03-06T13:04:51.046Z,18.17
2023-03-06T13:05:51.087Z,18.15
2023-03-06T13:06:51.616Z,18.11
2023-03-06T13:07:51.113Z,18.22
2023-03-06T13:08:51.137Z,18.50
2023-03-06T13:09:51.148Z,18.48
2023-03-06T13:10:51.167Z,18.48
2023-03-06T13:11:51.170Z,18.37
2023-03-06T13:12:51.271Z,18.45
2023-03-06T13:13:51.236Z,18.45
2023-03-06T13:14:54.565Z,18.37
2023-03-06T13:15:51.261Z,18.48
2023-03-06T13:16:51.264Z,18.49
2023-03-06T13:17:51.272Z,18.51
2023-03-06T13:18:51.237Z,18.49
2023-03-06T13:19:51.272Z,18.42
2023-03-06T13:20:51.227Z,18.43
2023-03-06T13:21:51.234Z,18.43
2023-03-06T13:22:51.238Z,18.43
2023-03-06T13:23:51.245Z,18.43
2023-03-06T13:24:54.926Z,18.40
2023-03-06T13:25:51.244Z,18.38
2023-03-06T13:26:51.218Z,18.40
2023-03-06T13:27:51.197Z,18.40
2023-03-06T13:28:51.168Z,18.37
2023-03-06T13:29:51.173Z,18.37
2023-03-06T13:30:53.021Z,18.34
2023-03-06T15:48:18.837Z,22.27
2023-03-06T15:50:18.799Z,22.20
2023-03-06T15:51:18.840Z,22.93
2023-03-06T15:52:18.823Z,22.36
2023-03-06T15:53:18.812Z,22.44
2023-03-06T15:54:18.841Z,22.50
2023-03-06T15:55:18.875Z,22.61
2023-03-06T15:56:19.003Z,23.13
2023-03-06T15:57:19.107Z,22.91
2023-03-06T15:58:19.197Z,22.70
2023-03-06T15:59:19.234Z,22.56
2023-03-06T16:00:27.390Z,22.70
2023-03-06T16:01:20.370Z,22.90
2023-03-06T16:02:19.337Z,23.53
2023-03-06T16:03:19.314Z,23.22
2023-03-06T16:04:19.377Z,23.19
2023-03-06T16:05:19.329Z,22.95
2023-03-06T16:06:19.313Z,22.96
2023-03-06T16:07:19.339Z,23.08
2023-03-06T16:08:19.304Z,22.94
2023-03-06T16:09:19.290Z,23.38
2023-03-06T16:10:19.322Z,23.62
2023-03-06T16:11:19.265Z,23.54
2023-03-06T16:12:19.336Z,24.57
2023-03-06T16:13:19.385Z,24.82
2023-03-06T16:14:19.421Z,23.89
2023-03-06T16:15:19.450Z,22.43
2023-03-06T16:16:19.538Z,20.88
2023-03-06T16:17:19.469Z,19.45
2023-03-06T16:18:19.519Z,17.57
2023-03-06T16:19:25.969Z,17.59
2023-03-06T16:20:20.563Z,17.52
2023-03-06T16:21:19.548Z,17.14
2023-03-06T16:22:19.530Z,17.26
2023-03-06T16:23:19.556Z,16.85
2023-03-06T16:24:19.516Z,17.39
2023-03-06T16:25:19.523Z,17.36
2023-03-06T16:26:19.508Z,16.90
2023-03-06T16:27:19.552Z,16.85
2023-03-06T16:28:19.523Z,17.05
2023-03-06T16:29:19.528Z,16.87
2023-03-06T16:30:19.498Z,17.04
2023-03-06T16:31:19.475Z,16.85
2023-03-06T16:32:19.585Z,16.37
2023-03-06T16:33:19.542Z,16.38
2023-03-06T16:34:19.761Z,16.37
2023-03-06T16:35:19.678Z,16.63
2023-03-06T16:36:19.642Z,16.95
2023-03-06T16:37:19.638Z,16.45
2023-03-06T16:38:19.663Z,16.43
2023-03-06T16:39:19.652Z,17.15
2023-03-06T16:40:19.710Z,18.76
2023-03-06T16:41:19.716Z,19.08
2023-03-06T16:42:19.749Z,18.98
2023-03-06T16:43:19.788Z,19.20
2023-03-06T16:44:19.847Z,19.69
2023-03-06T16:45:19.832Z,19.73
2023-03-06T16:46:19.898Z,20.06
2023-03-06T16:47:19.912Z,20.39
2023-03-06T16:48:19.999Z,21.41
2023-03-06T16:49:20.022Z,21.09
2023-03-06T16:50:19.976Z,21.13
2023-03-06T16:51:19.999Z,20.94
2023-03-06T16:52:20.044Z,20.84
2023-03-06T16:53:20.115Z,21.07
2023-03-06T16:54:20.184Z,21.34
2023-03-06T16:55:20.173Z,21.21
2023-03-06T16:56:20.205Z,21.66
2023-03-06T16:57:20.251Z,22.18
2023-03-06T16:58:20.285Z,21.90
2023-03-06T16:59:20.277Z,21.73
2023-03-06T17:00:20.313Z,21.46
2023-03-06T17:01:20.356Z,21.16
2023-03-06T17:02:20.377Z,20.93
2023-03-06T17:03:20.367Z,20.81
2023-03-06T17:04:20.378Z,20.50
2023-03-06T17:05:20.388Z,20.11
2023-03-06T17:06:20.409Z,20.04
2023-03-06T17:07:20.439Z,20.04
2023-03-06T17:08:20.489Z,19.97
2023-03-06T17:09:20.496Z,19.96
2023-03-06T17:10:20.519Z,20.07
2023-03-06T17:11:20.560Z,19.82
2023-03-06T17:12:20.544Z,19.66
2023-03-06T17:13:20.599Z,19.87
2023-03-06T17:14:20.625Z,19.65
2023-03-06T17:15:20.610Z,19.63
2023-03-06T17:16:20.757Z,19.77
2023-03-06T17:17:20.709Z,19.74
2023-03-06T17:18:20.690Z,19.52
2023-03-06T17:19:20.717Z,19.56
2023-03-06T17:20:20.750Z,19.59
2023-03-06T17:21:20.818Z,19.54
2023-03-06T17:22:20.813Z,19.52
2023-03-06T17:23:20.874Z,19.51
2023-03-06T17:24:20.893Z,19.48
2023-03-06T17:25:20.922Z,19.45
2023-03-06T17:26:20.926Z,19.40
2023-03-06T17:27:20.959Z,19.34
2023-03-06T17:28:20.979Z,19.38
2023-03-06T17:29:21.031Z,19.32
2023-03-06T17:30:21.065Z,19.31
2023-03-06T17:31:21.115Z,19.28
2023-03-06T17:32:21.148Z,19.21
2023-03-06T17:33:21.735Z,19.18
2023-03-06T17:34:23.082Z,19.18
2023-03-06T17:35:21.172Z,19.14
2023-03-06T17:36:21.169Z,19.12
2023-03-06T17:37:21.200Z,19.14
2023-03-06T17:38:21.129Z,19.01
2023-03-06T17:39:21.111Z,19.04
2023-03-06T17:40:21.123Z,19.00
2023-03-06T17:41:21.146Z,19.03
2023-03-06T17:42:21.115Z,19.01
2023-03-06T17:43:21.106Z,18.96
2023-03-06T17:44:21.099Z,18.90
2023-03-06T17:45:21.077Z,18.90
2023-03-06T17:46:21.120Z,18.81
2023-03-06T17:47:21.078Z,18.87
2023-03-06T17:48:21.093Z,18.84
2023-03-06T17:49:21.068Z,18.79
2023-03-06T17:50:21.058Z,18.81
2023-03-06T17:51:21.055Z,18.76
2023-03-06T17:52:21.025Z,18.79
2023-03-06T17:53:21.031Z,18.77
2023-03-06T17:54:21.083Z,18.70
2023-03-06T17:55:21.047Z,18.71
2023-03-06T17:56:21.039Z,18.67
2023-03-06T17:57:21.029Z,18.65
2023-03-06T17:58:21.023Z,18.67
2023-03-06T17:59:20.995Z,18.64
2023-03-06T18:00:20.971Z,18.61
2023-03-06T18:01:20.994Z,18.61
2023-03-06T18:02:20.992Z,18.56
2023-03-06T18:03:21.107Z,18.59
2023-03-06T18:04:20.964Z,18.54
2023-03-06T18:05:20.971Z,18.53
2023-03-06T18:06:20.994Z,18.58
2023-03-06T18:07:20.967Z,18.50
2023-03-06T18:08:20.942Z,18.46
2023-03-06T18:09:20.930Z,18.48
2023-03-06T18:10:20.936Z,18.47
2023-03-06T18:11:20.922Z,18.42
2023-03-06T18:12:21.073Z,18.45
2023-03-06T18:13:20.898Z,18.35
2023-03-06T18:14:20.906Z,18.35
2023-03-06T18:15:20.900Z,18.42
2023-03-06T18:16:21.019Z,18.37
2023-03-06T18:17:20.885Z,18.34
2023-03-06T18:18:20.886Z,18.34
2023-03-06T18:19:20.880Z,18.26
2023-03-06T18:20:20.878Z,18.28
2023-03-06T18:21:20.885Z,18.26
2023-03-06T18:22:20.836Z,18.29
2023-03-06T18:23:20.843Z,18.26
2023-03-06T18:24:20.850Z,18.23
2023-03-06T18:25:20.837Z,18.21
2023-03-06T18:26:20.839Z,18.21
2023-03-06T18:27:20.837Z,18.15
2023-03-06T18:28:20.819Z,18.15
2023-03-06T18:29:20.816Z,18.17
2023-03-06T18:30:20.830Z,18.12
2023-03-06T18:31:20.926Z,18.15
2023-03-06T18:32:20.962Z,18.20
2023-03-06T18:33:20.973Z,18.11
2023-03-06T18:34:21.011Z,18.05
2023-03-06T18:35:21.103Z,18.01
2023-03-06T18:36:21.117Z,18.01
2023-03-06T18:37:21.124Z,18.05
2023-03-06T18:38:21.190Z,18.05
2023-03-06T18:39:21.229Z,18.05
2023-03-06T18:40:22.908Z,18.01
2023-03-06T18:41:21.265Z,18.03
2023-03-06T18:42:21.227Z,17.94
2023-03-06T18:43:21.216Z,17.97
2023-03-06T18:44:21.221Z,17.90
2023-03-06T18:45:21.235Z,17.90
2023-03-06T18:46:21.197Z,17.92
2023-03-06T18:47:21.177Z,17.97
2023-03-06T18:48:21.166Z,17.87
2023-03-06T18:49:21.245Z,17.84
2023-03-06T18:50:21.174Z,17.84
2023-03-06T18:51:21.189Z,17.84
2023-03-06T18:52:21.176Z,17.79
2023-03-06T18:53:21.175Z,17.78
2023-03-06T18:54:21.190Z,17.77
2023-03-06T18:55:21.366Z,17.78
2023-03-06T18:56:21.179Z,17.75
2023-03-06T18:57:21.131Z,17.79
2023-03-06T18:58:21.110Z,17.72
2023-03-06T18:59:21.123Z,17.72
2023-03-06T19:00:21.124Z,17.72
2023-03-06T19:01:21.172Z,17.67
2023-03-06T19:02:21.110Z,17.69
2023-03-06T19:03:21.084Z,17.67
2023-03-06T19:04:21.111Z,17.72
2023-03-06T19:05:21.092Z,17.66
2023-03-06T19:06:21.084Z,17.69
2023-03-06T19:07:21.072Z,17.61
2023-03-06T19:08:21.072Z,17.58
2023-03-06T19:09:21.053Z,17.58
2023-03-06T19:10:21.068Z,17.61
2023-03-06T19:11:21.085Z,17.58
2023-03-06T19:12:21.065Z,17.56
2023-03-06T19:13:21.040Z,17.53
2023-03-06T19:14:21.023Z,17.53
2023-03-06T19:15:21.020Z,17.53
2023-03-06T19:16:21.042Z,17.50
2023-03-06T19:17:21.024Z,17.48
2023-03-06T19:18:21.030Z,17.45
2023-03-06T19:19:21.001Z,17.44
2023-03-06T19:20:20.994Z,17.47
2023-03-06T19:21:21.018Z,17.47
2023-03-06T19:22:20.992Z,17.47
2023-03-06T19:23:20.990Z,17.47
2023-03-06T19:24:20.984Z,17.44
2023-03-06T19:25:21.051Z,17.44
2023-03-06T19:26:21.153Z,17.42
2023-03-06T19:27:21.145Z,17.33
2023-03-06T19:28:21.197Z,17.34
2023-03-06T19:29:21.258Z,17.36
2023-03-06T19:30:21.297Z,17.34
2023-03-06T19:31:21.380Z,17.34
2023-03-06T19:32:21.405Z,17.36
2023-03-06T19:33:21.385Z,17.39
2023-03-06T19:34:21.419Z,17.37
2023-03-06T19:35:21.441Z,17.30
2023-03-06T19:36:21.470Z,17.34
2023-03-06T19:37:21.477Z,17.31
2023-03-06T19:38:21.488Z,17.34
2023-03-06T19:39:21.544Z,17.34
2023-03-06T19:40:21.545Z,17.34
2023-03-06T19:41:21.559Z,17.37
2023-03-06T19:42:21.586Z,17.33
2023-03-06T19:43:21.611Z,17.28
2023-03-06T19:44:21.601Z,17.30
2023-03-06T19:45:21.638Z,17.28
2023-03-06T19:46:21.732Z,17.28
2023-03-06T19:47:21.699Z,17.30
2023-03-06T19:48:22.804Z,17.28
2023-03-06T19:49:21.772Z,17.27
2023-03-06T19:50:21.851Z,17.23
2023-03-06T19:51:21.906Z,17.23
2023-03-06T19:52:21.916Z,17.25
2023-03-06T21:59:28.835Z,16.56
2023-03-06T22:00:28.840Z,16.52
2023-03-06T22:01:29.088Z,16.55
